Sauk Centre, MN (56378)

3:19 PM CST on December 03, 2016 (GMT -0600)
Sauk Centre | | Change Station

Elev 1240 ft 45.71 °N, 94.93 °W | Updated 1 hour ago

Clear
Clear
30 °F
Feels Like 21 °F
N
10
Wind Variable Wind from SE

Today
High -- | Low -- °F
--% Chance of Precip.
Yesterday
High -- | Low -- °F
Precip. -- in
Pressure 30.16 in
Visibility 10.0 miles
Clouds Clear
Windchill 21 °F
Dew Point 23 °F
Humidity 75%
Rainfall 0.00 in
Snow Depth Not available.
7:43 AM 4:36 PM
Waxing Crescent, 17% visible
METAR KD39 031959Z AUTO 13009KT 10SM CLR M01/M05 A3016 RMK AO2
Pressure 30.16 in
Visibility 10.0 miles
Clouds Clear
Windchill 21 °F
Dew Point 23 °F
Humidity 75%
Rainfall 0.00 in
Snow Depth Not available.
7:43 AM 4:36 PM
Waxing Crescent, 17% visible
METAR KD39 031959Z AUTO 13009KT 10SM CLR M01/M05 A3016 RMK AO2

10-Day Weather Forecast

Almanac

Astronomy

Dec. 03, 2016 Rise Set
Actual Time
Civil Twilight
Nautical Twilight
Astronomical Twilight
Moon
Length of Visible Light
Length of Day
Tomorrow will be .
, % of the Moon is Illuminated

Today's Extremes

State Highs State Lows

Community

WunderPhotos

Upload Photos

1,955,481 photos uploaded!

WunderBlog® & News

Nearby

Air Quality

  Air Quality AQ Index Pollutant
Not available.

Snow Depth

Station Depth Elevation

Earthquake Activity

City Distance Mag. Time & Date
Minimum magnitude displayed is 2.5.

Coastal Water Temperatures

Place Temperature

Stations

Nearby Weather Stations

Station Location Temp. Windchill Dew Point Humidity Wind Precip. Elev Updated Type
                   

Watches & Warnings

There are currently no watches in effect.